Terminal Aerodrome Forecast
Issued by NWS Denver/Boulder, CO

Home | Current Version | Previous Version | Text Only | Print | Product List | Glossary On
Versions: 1 2 3 4 5 6 7 8 9 10 11 12 13 14 15 16 17 18 19 20 21 22 23 24 25 26 27 28 29 30 31 32 33 34 35 36 37 38 39 40 41 42 43 44 45 46 47 48 49 50
000
FTUS45 KBOU 280206 AAA
TAFDEN
TAF AMD
KDEN 280206Z 2802/2906 12013KT P6SM SCT070 BKN090 BKN200
     FM280600 20012KT P6SM SCT100 BKN200
     FM281500 31011KT P6SM SCT100 BKN120
     FM282100 04014G22KT P6SM VCSH SCT050 BKN070
     FM282300 03015G25KT P6SM SCT030 OVC060
      TEMPO 2823/2903 -SHRASN BKN030
     FM290300 01014KT 3SM -SN BR BKN012 OVC020=

USA.gov is the U.S. government's official web portal to all federal, state and local government web resources and services.